Time;durP1;ratioP1;P1;durP2;ratioP2;P2;SDS_P1;SDS_P2;PMS_P1;PMS_P2;Temp;Humidity;BMP_temperature;BMP_pressure;BME280_temperature;BME280_humidity;BME280_pressure;Samples;Min_cycle;Max_cycle;Signal;HPM_P1;HPM_P2
2022/12/06 00:01:16;;;;;;;3.95;3.65;;;1.90;99.90;;;;;;5029711;28;20583;-54
2022/12/06 00:03:44;;;;;;;3.78;3.47;;;1.80;99.90;;;;;;5030267;28;20026;-55
2022/12/06 00:06:15;;;;;;;3.60;3.40;;;1.90;99.90;;;;;;5029474;28;20030;-49
2022/12/06 00:08:42;;;;;;;4.10;3.80;;;1.90;99.90;;;;;;5029578;28;20036;-51
2022/12/06 00:11:16;;;;;;;4.45;4.05;;;1.90;99.90;;;;;;5029422;28;20096;-53
2022/12/06 00:13:43;;;;;;;3.55;3.35;;;1.90;99.90;;;;;;5029794;28;20018;-52
2022/12/06 00:16:11;;;;;;;4.20;3.90;;;1.90;99.90;;;;;;5030143;28;20638;-50
2022/12/06 00:18:39;;;;;;;4.03;3.72;;;1.90;99.90;;;;;;5030355;28;20517;-56
2022/12/06 00:21:11;;;;;;;4.45;4.05;;;1.90;99.90;;;;;;5029913;28;20025;-53
2022/12/06 00:23:40;;;;;;;4.10;3.80;;;1.80;99.90;;;;;;5030361;28;20441;-53
2022/12/06 00:26:07;;;;;;;4.55;4.15;;;1.80;99.90;;;;;;5030140;28;20271;-55
2022/12/06 00:28:34;;;;;;;4.20;3.90;;;1.80;99.90;;;;;;5030249;28;20026;-56
2022/12/06 00:31:01;;;;;;;4.50;4.10;;;1.90;99.90;;;;;;5030162;28;20419;-53
2022/12/06 00:33:27;;;;;;;4.22;3.92;;;1.90;99.90;;;;;;5028833;28;20029;-52
2022/12/06 00:36:02;;;;;;;5.32;4.93;;;1.80;99.90;;;;;;5029926;28;20451;-52
2022/12/06 00:38:28;;;;;;;4.55;4.15;;;1.80;99.90;;;;;;5038744;28;20616;-55
2022/12/06 00:41:03;;;;;;;3.67;3.47;;;1.80;99.90;;;;;;5049898;28;20120;-58
2022/12/06 00:43:29;;;;;;;4.30;4.00;;;1.80;99.90;;;;;;5048580;28;20029;-55
2022/12/06 00:45:54;;;;;;;3.88;3.58;;;1.90;99.90;;;;;;5049812;28;20033;-56
2022/12/06 00:48:21;;;;;;;5.13;3.88;;;1.80;99.90;;;;;;5049699;28;20035;-52
2022/12/06 00:50:46;;;;;;;4.43;4.10;;;1.80;99.90;;;;;;5049825;28;20040;-56
2022/12/06 00:53:12;;;;;;;4.32;4.03;;;1.80;99.90;;;;;;5049565;28;20021;-52
2022/12/06 00:55:37;;;;;;;4.30;4.00;;;1.80;99.90;;;;;;5048344;28;20033;-56
2022/12/06 00:58:03;;;;;;;4.55;4.03;;;1.80;99.90;;;;;;5049566;28;20027;-52
2022/12/06 01:00:29;;;;;;;4.00;3.70;;;1.80;99.90;;;;;;5049708;28;20025;-54
2022/12/06 01:02:57;;;;;;;4.18;3.88;;;1.80;99.90;;;;;;5049370;28;20025;-55
2022/12/06 01:05:23;;;;;;;4.47;4.15;;;1.70;99.90;;;;;;5049532;28;20125;-54
2022/12/06 01:07:49;;;;;;;4.28;3.97;;;1.70;99.90;;;;;;5049505;28;20543;-55
2022/12/06 01:10:14;;;;;;;4.30;4.00;;;1.70;99.90;;;;;;5049434;28;20036;-54
2022/12/06 01:12:40;;;;;;;4.05;3.75;;;1.70;99.90;;;;;;5049274;28;20052;-55
2022/12/06 01:15:06;;;;;;;4.50;4.20;;;1.70;99.90;;;;;;5049275;28;20576;-56
2022/12/06 01:17:33;;;;;;;4.72;4.32;;;1.70;99.90;;;;;;5049250;28;20487;-54
2022/12/06 01:19:59;;;;;;;4.35;4.05;;;1.70;99.90;;;;;;5049343;28;20021;-53
2022/12/06 01:22:26;;;;;;;3.92;3.63;;;1.80;99.90;;;;;;5049125;28;20549;-55
2022/12/06 01:24:51;;;;;;;3.42;3.22;;;1.80;99.90;;;;;;5049156;28;20082;-54
2022/12/06 01:27:17;;;;;;;4.03;3.72;;;1.70;99.90;;;;;;5049261;28;20033;-53
2022/12/06 01:29:42;;;;;;;3.80;3.50;;;1.80;99.90;;;;;;5049259;28;20025;-53
2022/12/06 01:32:08;;;;;;;4.35;3.95;;;1.80;99.90;;;;;;5049100;28;20063;-51
2022/12/06 01:34:34;;;;;;;4.13;3.83;;;1.70;99.90;;;;;;5048280;28;20052;-53
2022/12/06 01:37:00;;;;;;;4.35;4.05;;;1.70;99.90;;;;;;5048804;28;20029;-55
2022/12/06 01:39:25;;;;;;;4.50;4.20;;;1.70;99.90;;;;;;5049104;28;20017;-55
2022/12/06 01:41:51;;;;;;;4.50;4.13;;;1.70;99.90;;;;;;5048851;28;20025;-53
2022/12/06 01:44:39;;;;;;;4.60;4.20;;;1.70;99.90;;;;;;5049008;28;20029;-52
2022/12/06 01:47:25;;;;;;;4.88;4.47;;;1.60;99.90;;;;;;5048851;28;20035;-55
2022/12/06 01:50:20;;;;;;;5.43;4.93;;;1.60;99.90;;;;;;5048928;28;20032;-54
2022/12/06 01:52:55;;;;;;;5.03;4.63;;;1.60;99.90;;;;;;5047272;28;20029;-55
2022/12/06 01:55:24;;;;;;;5.40;4.95;;;1.70;99.90;;;;;;5048756;28;20025;-53
2022/12/06 01:57:55;;;;;;;4.97;4.57;;;1.80;99.90;;;;;;5048633;28;20073;-53
2022/12/06 02:00:21;;;;;;;5.18;4.75;;;1.80;99.90;;;;;;5048867;28;20036;-53
2022/12/06 02:02:46;;;;;;;6.07;5.57;;;1.80;99.90;;;;;;5048667;28;20017;-56
2022/12/06 02:05:14;;;;;;;6.25;5.65;;;1.80;99.90;;;;;;5048514;28;20074;-52
2022/12/06 02:07:41;;;;;;;6.55;5.95;;;1.70;99.90;;;;;;5048711;28;20039;-54
2022/12/06 02:10:08;;;;;;;6.20;5.70;;;1.80;99.90;;;;;;5048482;28;20029;-54
2022/12/06 02:12:34;;;;;;;6.55;5.95;;;1.70;99.90;;;;;;5048517;28;20534;-55
2022/12/06 02:14:59;;;;;;;6.63;6.03;;;1.80;99.90;;;;;;5048502;28;20029;-56
2022/12/06 02:17:43;;;;;;;6.32;5.80;;;1.80;99.90;;;;;;5048469;28;20082;-54
2022/12/06 02:20:31;;;;;;;6.05;5.45;;;1.80;99.90;;;;;;5048436;28;20108;-56
2022/12/06 02:23:23;;;;;;;6.25;5.75;;;1.80;99.90;;;;;;5047191;28;20725;-56
2022/12/06 02:25:54;;;;;;;6.70;6.00;;;1.80;99.90;;;;;;5048441;28;20077;-55
2022/12/06 02:28:26;;;;;;;7.05;6.35;;;1.80;99.90;;;;;;5047146;28;20037;-52
2022/12/06 02:31:03;;;;;;;6.93;6.22;;;1.80;99.90;;;;;;5047052;28;20464;-53
2022/12/06 02:33:47;;;;;;;6.93;5.95;;;1.90;99.90;;;;;;5048308;28;20033;-52
2022/12/06 02:36:28;;;;;;;5.45;4.95;;;1.90;99.90;;;;;;5048073;28;20031;-54
2022/12/06 02:39:14;;;;;;;5.60;5.10;;;1.90;99.90;;;;;;5048345;28;20450;-53
2022/12/06 02:42:03;;;;;;;6.22;5.63;;;2.10;99.90;;;;;;5048298;28;20456;-52
2022/12/06 02:44:35;;;;;;;6.60;6.00;;;2.00;99.90;;;;;;5037964;28;20043;-54
2022/12/06 02:47:03;;;;;;;6.65;6.05;;;2.00;99.90;;;;;;5051466;28;20520;-54
2022/12/06 02:49:32;;;;;;;6.47;5.93;;;2.00;99.90;;;;;;5051823;28;20029;-53
2022/12/06 02:51:58;;;;;;;5.65;5.18;;;2.00;99.90;;;;;;5051549;28;20021;-55
2022/12/06 02:54:26;;;;;;;6.60;6.00;;;2.00;99.90;;;;;;5051611;28;20490;-54
2022/12/06 02:56:52;;;;;;;7.20;6.50;;;2.00;99.90;;;;;;5050157;28;20025;-52
2022/12/06 02:59:17;;;;;;;6.72;6.10;;;2.00;99.90;;;;;;5051547;28;20373;-53
2022/12/06 03:01:50;;;;;;;7.13;6.43;;;2.10;99.90;;;;;;5051384;28;20036;-55
2022/12/06 03:04:45;;;;;;;6.32;5.72;;;2.10;99.90;;;;;;5051552;28;20024;-55
2022/12/06 03:07:40;;;;;;;6.93;6.22;;;2.10;99.90;;;;;;5051288;28;20033;-56
2022/12/06 03:10:21;;;;;;;7.38;6.57;;;2.10;99.90;;;;;;5049957;28;20037;-55
2022/12/06 03:13:19;;;;;;;6.22;5.63;;;2.10;99.90;;;;;;5051143;28;20543;-51
2022/12/06 03:15:58;;;;;;;7.82;7.13;;;2.10;99.90;;;;;;5051157;28;20156;-56
2022/12/06 03:18:40;;;;;;;7.22;6.53;;;2.10;99.90;;;;;;5051277;28;20033;-56
2022/12/06 03:21:17;;;;;;;10.70;7.70;;;2.10;99.90;;;;;;5051061;28;20021;-54
2022/12/06 03:23:47;;;;;;;7.50;6.80;;;2.10;99.90;;;;;;5051153;28;20021;-54
2022/12/06 03:26:24;;;;;;;14.55;12.00;;;2.20;99.90;;;;;;5050889;28;20025;-55
2022/12/06 03:28:52;;;;;;;7.32;6.63;;;2.20;99.90;;;;;;5051082;28;20056;-55
2022/12/06 03:31:21;;;;;;;8.15;7.35;;;2.20;99.90;;;;;;5051034;28;20058;-55
2022/12/06 03:33:54;;;;;;;10.40;9.40;;;2.30;99.90;;;;;;5051075;28;20547;-53
2022/12/06 03:36:21;;;;;;;9.00;7.28;;;2.20;99.90;;;;;;5050988;28;20546;-55
2022/12/06 03:38:54;;;;;;;9.20;8.18;;;2.20;99.90;;;;;;5050871;28;20033;-53
2022/12/06 03:41:24;;;;;;;9.45;8.55;;;2.20;99.90;;;;;;5050847;28;20024;-52
2022/12/06 03:43:50;;;;;;;9.93;8.20;;;2.20;99.90;;;;;;5050757;28;20025;-56
2022/12/06 03:46:25;;;;;;;8.20;7.40;;;2.10;99.90;;;;;;5050785;28;20140;-54
2022/12/06 03:49:14;;;;;;;9.95;7.88;;;2.20;99.90;;;;;;5050706;28;20120;-54
2022/12/06 03:51:42;;;;;;;8.70;7.80;;;2.20;99.90;;;;;;5039560;28;20045;-52
2022/12/06 03:54:08;;;;;;;8.60;7.75;;;2.30;99.90;;;;;;5050681;28;20029;-54
2022/12/06 03:56:36;;;;;;;9.98;8.98;;;2.30;99.90;;;;;;5048776;28;20036;-51
2022/12/06 03:59:06;;;;;;;9.40;7.97;;;2.30;99.90;;;;;;5050563;28;20048;-52
2022/12/06 04:01:32;;;;;;;10.25;8.65;;;2.30;99.90;;;;;;5050715;28;20128;-52
2022/12/06 04:03:58;;;;;;;9.63;8.63;;;2.30;99.90;;;;;;5050486;28;20056;-53
2022/12/06 04:06:24;;;;;;;9.25;8.30;;;2.20;99.90;;;;;;5050600;28;20040;-54
2022/12/06 04:08:50;;;;;;;10.70;9.60;;;2.30;99.90;;;;;;5050422;28;20033;-55
2022/12/06 04:11:15;;;;;;;13.75;9.60;;;2.20;99.90;;;;;;5050382;28;20041;-53
2022/12/06 04:13:41;;;;;;;9.80;8.32;;;2.20;99.90;;;;;;5050429;28;20029;-54
2022/12/06 04:18:09;;;;;;;11.00;9.73;;;2.20;99.90;;;;;;5050290;28;20086;-55
2022/12/06 04:18:54;;;;;;;11.23;9.57;;;2.20;99.90;;;;;;5049969;28;20025;-55
2022/12/06 04:23:58;;;;;;;10.10;8.75;;;2.20;99.90;;;;;;5050160;28;20356;-54
2022/12/06 04:26:25;;;;;;;10.40;9.27;;;2.20;99.90;;;;;;5050262;28;20033;-58
2022/12/06 04:39:51;;;;;;;12.45;11.13;;;2.10;99.90;;;;;;5050144;28;20101;-53
2022/12/06 04:45:02;;;;;;;14.05;10.40;;;2.10;99.90;;;;;;5050041;28;20371;-53
2022/12/06 04:47:28;;;;;;;11.13;9.95;;;2.20;99.90;;;;;;5049855;28;20033;-57
2022/12/06 04:49:53;;;;;;;13.00;10.80;;;2.20;99.90;;;;;;5049624;28;20116;-55
2022/12/06 04:52:19;;;;;;;12.18;10.70;;;2.20;99.90;;;;;;5049722;28;20128;-56
2022/12/06 04:54:46;;;;;;;12.80;10.55;;;2.10;99.90;;;;;;5049843;28;20029;-54
2022/12/06 04:57:13;;;;;;;13.20;10.50;;;2.10;99.90;;;;;;5049624;28;20352;-54
2022/12/06 04:59:41;;;;;;;12.20;10.90;;;2.20;99.90;;;;;;5049641;28;20055;-55
2022/12/06 05:02:09;;;;;;;16.85;12.07;;;2.20;99.90;;;;;;5049452;28;20049;-53
2022/12/06 05:04:35;;;;;;;15.07;11.25;;;2.20;99.90;;;;;;5049515;28;20025;-54
2022/12/06 05:07:01;;;;;;;12.07;9.95;;;2.20;99.90;;;;;;5049416;28;20025;-53
2022/12/06 05:09:27;;;;;;;13.75;9.82;;;2.20;99.90;;;;;;5048867;28;20033;-53
2022/12/06 05:11:52;;;;;;;14.05;10.30;;;2.30;99.90;;;;;;5048460;28;20044;-55
2022/12/06 05:14:18;;;;;;;14.80;10.18;;;2.30;99.90;;;;;;5048640;28;20427;-52
2022/12/06 05:16:44;;;;;;;12.15;9.88;;;2.30;99.90;;;;;;5048893;28;20033;-52
2022/12/06 05:19:11;;;;;;;18.58;12.55;;;2.30;99.90;;;;;;5048021;28;20209;-54
2022/12/06 05:21:37;;;;;;;18.75;12.32;;;2.30;99.90;;;;;;5048436;28;20017;-52
2022/12/06 05:24:03;;;;;;;14.60;11.38;;;2.30;99.90;;;;;;5048665;28;20029;-53
2022/12/06 05:26:29;;;;;;;18.98;13.82;;;2.30;99.90;;;;;;5047435;28;20025;-54
2022/12/06 05:28:56;;;;;;;14.90;12.05;;;2.30;99.90;;;;;;5048980;28;20037;-55
2022/12/06 05:31:23;;;;;;;14.25;11.05;;;2.30;99.90;;;;;;5049235;28;20108;-56
2022/12/06 05:33:49;;;;;;;13.88;11.05;;;2.30;99.90;;;;;;5048708;28;20029;-56
2022/12/06 05:36:21;;;;;;;15.52;10.80;;;2.30;99.90;;;;;;5048682;28;20029;-52
2022/12/06 05:38:48;;;;;;;12.82;10.57;;;2.30;99.90;;;;;;5048873;28;20030;-54
2022/12/06 05:41:14;;;;;;;12.10;9.90;;;2.30;99.90;;;;;;5049057;28;20388;-53
2022/12/06 05:43:39;;;;;;;12.63;9.88;;;2.40;99.90;;;;;;5048854;28;20025;-52
2022/12/06 05:46:05;;;;;;;14.05;10.55;;;2.40;99.90;;;;;;5048821;28;20025;-54
2022/12/06 05:48:31;;;;;;;13.90;12.40;;;2.30;99.90;;;;;;5047570;28;20421;-56
2022/12/06 05:50:57;;;;;;;11.20;10.00;;;2.30;99.90;;;;;;5048832;28;20094;-53
2022/12/06 05:53:23;;;;;;;15.77;11.65;;;2.30;99.90;;;;;;5048823;28;20642;-51
2022/12/06 05:55:49;;;;;;;15.27;10.98;;;2.30;99.90;;;;;;5048607;28;20623;-53
2022/12/06 05:58:15;;;;;;;34.92;13.20;;;2.30;99.90;;;;;;5048840;28;20025;-55
2022/12/06 06:00:41;;;;;;;16.70;13.43;;;2.30;99.90;;;;;;5048630;28;20060;-55
2022/12/06 06:03:06;;;;;;;24.50;13.88;;;2.30;99.90;;;;;;5048617;28;20464;-54
2022/12/06 06:05:32;;;;;;;34.08;22.50;;;2.20;99.90;;;;;;5048640;28;20014;-56
2022/12/06 06:07:58;;;;;;;31.02;22.02;;;2.20;99.90;;;;;;5048508;28;20025;-55
2022/12/06 06:10:24;;;;;;;27.85;19.75;;;2.20;99.90;;;;;;5048558;28;20028;-56
2022/12/06 06:12:50;;;;;;;17.65;13.50;;;2.20;99.90;;;;;;5048164;28;20040;-58
2022/12/06 06:15:16;;;;;;;19.85;13.82;;;2.30;99.90;;;;;;5048461;28;20029;-58
2022/12/06 06:17:42;;;;;;;20.30;14.77;;;2.30;99.90;;;;;;5048458;28;20032;-57
2022/12/06 06:20:10;;;;;;;16.40;14.02;;;2.30;99.90;;;;;;5047758;28;20021;-58
2022/12/06 06:22:37;;;;;;;15.70;12.77;;;2.30;99.90;;;;;;5048345;28;20017;-55
2022/12/06 06:25:04;;;;;;;16.55;13.40;;;2.20;99.90;;;;;;5047977;28;20025;-54
2022/12/06 06:27:35;;;;;;;15.85;12.88;;;2.20;99.90;;;;;;5047122;28;20025;-56
2022/12/06 06:30:03;;;;;;;18.05;14.02;;;2.30;99.90;;;;;;5046736;28;20059;-57
2022/12/06 06:32:28;;;;;;;18.00;14.05;;;2.30;99.90;;;;;;5047145;28;20061;-55
2022/12/06 06:34:54;;;;;;;17.52;13.50;;;2.30;99.90;;;;;;5047061;28;20052;-55
2022/12/06 06:37:19;;;;;;;17.08;13.15;;;2.20;99.90;;;;;;5046996;28;20032;-56
2022/12/06 06:39:45;;;;;;;16.10;12.50;;;2.20;99.90;;;;;;5047271;28;20025;-55
2022/12/06 06:42:11;;;;;;;17.42;13.85;;;2.30;99.90;;;;;;5046938;28;20069;-56
2022/12/06 06:44:36;;;;;;;21.63;14.15;;;2.40;99.90;;;;;;5046988;28;20017;-54
2022/12/06 06:47:02;;;;;;;16.58;11.98;;;2.40;99.90;;;;;;5046855;28;20468;-54
2022/12/06 06:49:28;;;;;;;21.05;12.73;;;2.30;99.90;;;;;;5046947;28;20029;-54
2022/12/06 06:51:53;;;;;;;16.23;12.65;;;2.30;99.90;;;;;;5047025;28;20160;-55
2022/12/06 06:54:19;;;;;;;17.83;13.55;;;2.30;99.90;;;;;;5046891;28;20384;-57
2022/12/06 06:56:45;;;;;;;17.63;12.65;;;2.30;99.90;;;;;;5046892;28;20029;-57
2022/12/06 06:59:10;;;;;;;14.60;11.75;;;2.40;99.90;;;;;;5045428;28;20492;-55
2022/12/06 07:01:37;;;;;;;13.48;11.13;;;2.40;99.90;;;;;;5046758;28;20021;-54
2022/12/06 07:04:03;;;;;;;15.35;12.65;;;2.50;99.90;;;;;;5045234;28;20040;-57
2022/12/06 07:06:28;;;;;;;16.30;12.18;;;2.40;99.90;;;;;;5046703;28;20056;-56
2022/12/06 07:08:54;;;;;;;15.80;11.55;;;2.40;99.90;;;;;;5047439;28;20021;-56
2022/12/06 07:11:20;;;;;;;18.35;12.40;;;2.40;99.90;;;;;;5047621;28;20037;-56
2022/12/06 07:13:45;;;;;;;43.30;23.42;;;2.40;99.90;;;;;;5047522;28;20025;-54
2022/12/06 07:16:15;;;;;;;16.27;13.55;;;2.40;99.90;;;;;;5047158;28;20033;-56
2022/12/06 07:18:42;;;;;;;15.80;12.38;;;2.40;99.90;;;;;;5046554;28;20024;-56
2022/12/06 07:21:09;;;;;;;18.10;13.20;;;2.40;99.90;;;;;;5046150;28;20432;-57
2022/12/06 07:23:36;;;;;;;16.65;13.73;;;2.40;99.90;;;;;;5046644;28;20082;-54
2022/12/06 07:26:08;;;;;;;17.90;14.55;;;2.40;99.90;;;;;;5046318;28;20021;-55
2022/12/06 07:28:35;;;;;;;14.93;12.67;;;2.50;99.90;;;;;;5045263;28;20032;-54
2022/12/06 07:31:30;;;;;;;15.45;12.52;;;2.50;99.90;;;;;;5046586;28;20022;-52
2022/12/06 07:34:00;;;;;;;16.65;12.18;;;2.50;99.90;;;;;;5050136;28;20547;-56
2022/12/06 07:36:29;;;;;;;14.35;10.88;;;2.60;99.90;;;;;;5049603;28;20029;-53
2022/12/06 07:38:56;;;;;;;14.38;11.52;;;2.60;99.90;;;;;;5049553;28;20035;-51
2022/12/06 07:46:56;;;;;;;17.60;10.90;;;2.90;99.90;;;;;;5049385;28;20525;-55
2022/12/06 07:49:22;;;;;;;14.95;11.90;;;2.80;99.90;;;;;;5049724;28;20029;-55
2022/12/06 07:51:48;;;;;;;16.17;11.52;;;2.80;99.90;;;;;;5049647;28;20287;-56
2022/12/06 07:54:14;;;;;;;16.60;12.45;;;2.80;99.90;;;;;;5048146;28;20036;-55
2022/12/06 07:56:40;;;;;;;17.15;11.10;;;2.90;99.90;;;;;;5049473;28;20045;-56
2022/12/06 07:59:06;;;;;;;27.23;18.50;;;2.90;99.90;;;;;;5049382;28;20025;-57
2022/12/06 08:01:32;;;;;;;15.18;12.32;;;3.00;99.90;;;;;;5049418;28;20025;-56
2022/12/06 08:04:00;;;;;;;22.77;14.50;;;3.10;99.90;;;;;;5049259;28;20025;-54
2022/12/06 08:06:26;;;;;;;14.23;11.55;;;3.20;99.90;;;;;;5049522;28;20021;-54
2022/12/06 08:08:52;;;;;;;13.50;9.90;;;3.30;99.90;;;;;;5049139;28;20020;-58
2022/12/06 08:11:19;;;;;;;12.25;9.93;;;3.40;99.90;;;;;;5049326;28;20056;-57
2022/12/06 08:13:45;;;;;;;13.05;9.55;;;3.50;99.90;;;;;;5049161;28;20036;-57
2022/12/06 08:16:12;;;;;;;11.98;9.68;;;3.70;99.90;;;;;;5049007;28;20037;-53
2022/12/06 08:18:39;;;;;;;13.10;9.98;;;3.70;99.90;;;;;;5047801;28;20025;-57
2022/12/06 08:21:05;;;;;;;16.33;10.82;;;3.70;99.90;;;;;;5049060;28;20021;-56
2022/12/06 08:23:31;;;;;;;11.35;9.07;;;3.70;99.90;;;;;;5049032;28;20022;-56
2022/12/06 08:26:00;;;;;;;12.63;9.88;;;3.80;99.90;;;;;;5049042;28;20078;-55
2022/12/06 08:28:28;;;;;;;59.08;31.55;;;3.90;99.90;;;;;;5048987;28;20029;-54
2022/12/06 08:30:54;;;;;;;13.60;11.20;;;3.80;99.90;;;;;;5048752;28;20459;-56
2022/12/06 08:33:21;;;;;;;71.05;35.25;;;3.90;99.90;;;;;;5048841;28;20037;-57
2022/12/06 08:35:48;;;;;;;52.10;26.85;;;4.10;99.90;;;;;;5047274;28;20029;-56
2022/12/06 08:38:14;;;;;;;17.35;12.27;;;4.00;99.90;;;;;;5048761;28;20016;-53
2022/12/06 08:40:39;;;;;;;35.03;19.77;;;4.00;99.90;;;;;;5048881;28;20052;-56
2022/12/06 08:43:05;;;;;;;52.25;30.52;;;4.00;99.90;;;;;;5048462;28;20056;-56
2022/12/06 08:45:31;;;;;;;34.80;22.00;;;4.00;99.90;;;;;;5048569;28;20388;-55
2022/12/06 08:47:57;;;;;;;26.60;17.55;;;4.20;99.90;;;;;;5048580;28;20021;-55
2022/12/06 08:50:23;;;;;;;21.80;15.52;;;4.30;99.90;;;;;;5048714;28;20104;-55
2022/12/06 08:52:48;;;;;;;23.83;15.73;;;4.60;99.90;;;;;;5048765;28;20032;-56
2022/12/06 08:55:14;;;;;;;9.95;8.60;;;4.70;99.90;;;;;;5048412;28;20078;-55
2022/12/06 08:57:40;;;;;;;11.10;9.10;;;5.00;99.90;;;;;;5048528;28;20065;-55
2022/12/06 09:00:06;;;;;;;19.48;12.48;;;5.00;99.90;;;;;;5048349;28;20380;-56
2022/12/06 09:02:32;;;;;;;19.45;12.63;;;4.80;99.90;;;;;;5048561;28;20029;-55
2022/12/06 09:04:57;;;;;;;14.65;10.43;;;4.80;99.90;;;;;;5048145;28;20025;-54
2022/12/06 09:07:25;;;;;;;11.57;10.32;;;5.10;99.90;;;;;;5048452;28;20037;-55
2022/12/06 09:09:52;;;;;;;20.60;15.32;;;5.10;99.90;;;;;;5048314;28;20460;-55
2022/12/06 09:12:18;;;;;;;12.82;9.52;;;5.00;99.90;;;;;;5048001;28;20128;-54
2022/12/06 09:14:44;;;;;;;17.08;11.27;;;5.30;99.90;;;;;;5048375;28;20437;-56
2022/12/06 09:17:09;;;;;;;12.95;10.70;;;5.50;99.90;;;;;;5047831;28;20033;-56
2022/12/06 09:19:35;;;;;;;12.63;9.15;;;5.20;99.90;;;;;;5047015;28;20028;-52
2022/12/06 09:22:01;;;;;;;10.18;7.85;;;5.70;99.90;;;;;;5047980;28;20116;-56
2022/12/06 09:24:27;;;;;;;10.20;7.57;;;6.90;99.90;;;;;;5048265;28;20125;-56
2022/12/06 09:26:52;;;;;;;8.80;7.65;;;7.40;99.90;;;;;;5047812;28;20032;-55
2022/12/06 09:29:18;;;;;;;11.52;8.15;;;7.40;99.90;;;;;;5048144;28;20384;-56
2022/12/06 09:31:44;;;;;;;9.68;8.00;;;8.00;99.90;;;;;;5048007;28;20032;-56
2022/12/06 09:34:11;;;;;;;11.48;8.98;;;8.50;99.90;;;;;;5047921;28;20033;-56
2022/12/06 09:36:48;;;;;;;10.95;8.15;;;8.80;99.90;;;;;;5047856;28;20146;-53
2022/12/06 09:39:28;;;;;;;12.13;8.73;;;8.70;99.90;;;;;;5047840;28;20104;-56
2022/12/06 09:42:00;;;;;;;15.90;11.50;;;8.70;99.90;;;;;;5047851;28;20041;-54
2022/12/06 09:44:37;;;;;;;13.30;10.10;;;7.90;99.90;;;;;;5047724;28;20404;-57
2022/12/06 09:47:40;;;;;;;22.80;14.52;;;7.50;99.90;;;;;;5047598;28;20546;-57
2022/12/06 09:50:20;;;;;;;12.52;10.00;;;7.10;99.90;;;;;;5047531;28;20021;-57
2022/12/06 09:53:29;;;;;;;13.10;10.13;;;7.20;99.90;;;;;;5047688;28;20040;-56
2022/12/06 09:56:09;;;;;;;13.98;9.70;;;7.80;99.90;;;;;;5046730;28;20017;-53
2022/12/06 09:58:46;;;;;;;11.38;9.43;;;7.40;99.90;;;;;;5047689;28;20024;-56
2022/12/06 10:01:22;;;;;;;10.82;9.23;;;7.90;99.90;;;;;;5047413;28;20028;-57
2022/12/06 10:04:09;;;;;;;12.60;9.98;;;7.50;99.90;;;;;;5047516;28;20021;-56
2022/12/06 10:06:49;;;;;;;14.15;10.27;;;7.50;99.90;;;;;;5047390;28;20031;-56
2022/12/06 10:09:53;;;;;;;16.33;11.63;;;7.10;99.90;;;;;;5047277;28;20036;-55
2022/12/06 10:12:37;;;;;;;16.67;11.60;;;6.20;99.90;;;;;;5044415;28;20124;-57
2022/12/06 10:15:12;;;;;;;15.65;12.70;;;5.90;99.90;;;;;;5047218;28;20141;-57
2022/12/06 10:17:56;;;;;;;16.33;12.05;;;5.80;99.90;;;;;;5047406;28;20407;-56
2022/12/06 10:20:43;;;;;;;18.83;13.63;;;5.80;99.90;;;;;;5047347;28;20025;-55
2022/12/06 10:23:30;;;;;;;20.50;15.90;;;5.60;99.90;;;;;;5047109;28;20465;-56
2022/12/06 10:25:59;;;;;;;19.67;15.55;;;5.70;99.90;;;;;;5046980;28;20041;-55
2022/12/06 10:28:48;;;;;;;19.98;14.95;;;5.40;99.90;;;;;;5046914;28;20107;-55
2022/12/06 10:31:22;;;;;;;21.98;15.73;;;5.40;99.90;;;;;;5047194;28;20401;-54
2022/12/06 10:33:55;;;;;;;24.20;15.35;;;5.60;99.90;;;;;;5047362;28;20017;-56
2022/12/06 10:36:39;;;;;;;22.13;16.63;;;5.60;99.90;;;;;;5046955;28;20025;-57
2022/12/06 10:39:21;;;;;;;24.85;16.20;;;5.50;99.90;;;;;;5047512;28;20043;-56
2022/12/06 10:42:19;;;;;;;37.35;23.15;;;5.40;99.90;;;;;;5047651;28;20130;-57
2022/12/06 10:44:57;;;;;;;21.17;15.38;;;5.50;99.90;;;;;;5035913;28;20044;-55
2022/12/06 10:47:30;;;;;;;22.83;15.02;;;5.40;99.90;;;;;;5046843;28;20025;-56
2022/12/06 10:50:13;;;;;;;25.98;17.58;;;5.60;99.90;;;;;;5046897;28;20108;-54
2022/12/06 10:52:43;;;;;;;30.17;19.77;;;5.50;99.90;;;;;;5046616;28;20030;-57
2022/12/06 10:55:09;;;;;;;33.40;20.65;;;5.40;99.90;;;;;;5046796;28;20025;-54
2022/12/06 10:57:55;;;;;;;48.60;26.23;;;5.20;99.90;;;;;;5047079;28;20028;-54
2022/12/06 11:00:58;;;;;;;39.58;21.80;;;5.10;99.90;;;;;;5046956;28;20104;-54
2022/12/06 11:03:46;;;;;;;27.73;19.15;;;5.00;99.90;;;;;;5047012;28;20044;-57
2022/12/06 11:06:38;;;;;;;16.33;12.32;;;5.30;99.90;;;;;;5048023;28;20027;-57
2022/12/06 11:09:30;;;;;;;22.35;14.98;;;5.20;99.90;;;;;;5026628;28;20272;-54
2022/12/06 11:11:56;;;;;;;19.75;14.70;;;4.90;99.90;;;;;;5050258;28;20049;-54
2022/12/06 11:14:40;;;;;;;20.75;15.73;;;4.90;99.90;;;;;;5050289;28;20017;-55
2022/12/06 11:17:17;;;;;;;23.02;16.30;;;4.90;99.90;;;;;;5049880;28;20025;-54
2022/12/06 11:19:48;;;;;;;15.52;12.80;;;5.00;99.90;;;;;;5050116;28;20431;-56
2022/12/06 11:22:44;;;;;;;20.05;13.77;;;5.10;99.90;;;;;;5049885;28;20022;-55
2022/12/06 11:25:33;;;;;;;19.17;14.85;;;5.10;99.90;;;;;;5049943;28;20051;-56
2022/12/06 11:28:21;;;;;;;17.85;12.65;;;5.00;99.90;;;;;;5049862;28;20077;-55
2022/12/06 11:30:53;;;;;;;17.85;13.27;;;5.10;99.90;;;;;;5049987;28;20201;-54
2022/12/06 11:33:30;;;;;;;15.95;12.27;;;5.10;99.90;;;;;;5050080;28;20057;-53
2022/12/06 11:35:59;;;;;;;15.85;11.90;;;5.00;99.90;;;;;;5049666;28;20383;-55
2022/12/06 11:38:25;;;;;;;15.32;10.60;;;5.10;99.90;;;;;;5049748;28;20025;-56
2022/12/06 11:40:51;;;;;;;15.68;11.65;;;5.10;99.90;;;;;;5049802;28;20028;-53
2022/12/06 11:43:25;;;;;;;16.35;10.52;;;5.00;99.90;;;;;;5048624;28;20067;-56
2022/12/06 11:45:53;;;;;;;13.93;10.45;;;5.10;99.90;;;;;;5049695;28;20013;-56
2022/12/06 11:48:23;;;;;;;12.40;10.52;;;4.90;99.90;;;;;;5049761;28;20348;-56
2022/12/06 11:50:50;;;;;;;11.20;9.85;;;4.90;99.90;;;;;;5049579;28;20025;-55
2022/12/06 11:53:27;;;;;;;16.60;12.15;;;5.20;99.90;;;;;;5049646;28;20024;-56
2022/12/06 11:55:56;;;;;;;15.40;10.20;;;5.00;99.90;;;;;;5048216;28;20404;-57
2022/12/06 11:58:29;;;;;;;13.30;9.88;;;5.10;99.90;;;;;;5049563;28;20029;-56
2022/12/06 12:00:59;;;;;;;13.88;10.50;;;5.10;99.90;;;;;;5049354;28;20373;-54
2022/12/06 12:03:33;;;;;;;15.88;9.95;;;5.10;99.90;;;;;;5049327;28;20032;-54
2022/12/06 12:06:18;;;;;;;12.18;9.88;;;5.50;99.90;;;;;;5049426;28;20025;-55
2022/12/06 12:09:03;;;;;;;12.75;9.35;;;6.20;99.90;;;;;;5049502;28;20017;-54
2022/12/06 12:11:32;;;;;;;10.15;9.10;;;7.00;99.90;;;;;;5049176;28;20037;-55
2022/12/06 12:14:01;;;;;;;12.27;9.18;;;7.20;99.90;;;;;;5047951;28;20028;-54
2022/12/06 12:16:45;;;;;;;9.23;7.93;;;8.00;99.90;;;;;;5047932;28;20036;-57
2022/12/06 12:19:32;;;;;;;10.27;8.25;;;9.10;99.90;;;;;;5048581;28;20017;-55
2022/12/06 12:22:11;;;;;;;8.90;6.90;;;10.40;98.40;;;;;;5048938;28;20029;-54
2022/12/06 12:24:50;;;;;;;8.15;7.22;;;11.30;95.60;;;;;;5049303;28;20021;-55
2022/12/06 12:27:39;;;;;;;7.60;6.72;;;11.00;95.40;;;;;;5049201;28;20047;-56
2022/12/06 12:30:22;;;;;;;8.32;7.43;;;9.70;96.50;;;;;;5040776;28;20400;-56
2022/12/06 12:32:50;;;;;;;7.63;6.68;;;9.20;98.60;;;;;;5047792;28;20033;-55
2022/12/06 12:35:27;;;;;;;7.47;6.53;;;9.30;98.70;;;;;;5047713;28;20029;-56
2022/12/06 12:38:44;;;;;;;8.82;7.32;;;9.40;97.60;;;;;;5048691;28;20530;-55
2022/12/06 12:41:25;;;;;;;9.40;7.35;;;8.60;99.90;;;;;;5057195;28;20128;-53
2022/12/06 12:44:12;;;;;;;9.07;7.05;;;8.70;99.90;;;;;;5047636;28;20021;-57
2022/12/06 12:46:43;;;;;;;8.57;6.63;;;8.60;99.90;;;;;;5048805;28;20563;-54
2022/12/06 12:49:31;;;;;;;7.13;5.78;;;8.40;99.90;;;;;;5048486;28;20041;-56
2022/12/06 12:51:58;;;;;;;11.00;7.47;;;8.40;99.90;;;;;;5048584;28;20025;-55
2022/12/06 12:54:35;;;;;;;9.57;6.63;;;8.40;99.90;;;;;;5048688;28;20022;-57
2022/12/06 12:57:06;;;;;;;7.68;6.80;;;8.30;99.90;;;;;;5048449;28;20021;-57
2022/12/06 12:59:37;;;;;;;7.25;6.30;;;8.10;99.90;;;;;;5048564;28;20373;-55
2022/12/06 13:02:26;;;;;;;12.80;7.43;;;8.00;99.90;;;;;;5048396;28;20040;-56
2022/12/06 13:05:05;;;;;;;6.40;5.75;;;7.60;99.90;;;;;;5047807;28;20029;-57
2022/12/06 13:07:34;;;;;;;13.00;9.32;;;7.40;99.90;;;;;;5048455;28;20025;-54
2022/12/06 13:10:07;;;;;;;8.35;6.88;;;7.20;99.90;;;;;;5048382;28;20032;-57
2022/12/06 13:13:03;;;;;;;12.53;7.50;;;6.90;99.90;;;;;;5048373;28;20037;-54
2022/12/06 13:15:40;;;;;;;7.85;6.75;;;6.60;99.90;;;;;;5047851;28;20408;-55
2022/12/06 13:18:30;;;;;;;8.60;7.18;;;6.60;99.90;;;;;;5048159;28;20088;-55
2022/12/06 13:21:02;;;;;;;21.95;8.48;;;6.50;99.90;;;;;;5048215;28;20013;-56
2022/12/06 13:23:34;;;;;;;11.15;8.77;;;6.40;99.90;;;;;;5048526;28;20108;-56
2022/12/06 13:26:21;;;;;;;9.93;7.82;;;6.50;99.90;;;;;;5048073;28;20052;-56
2022/12/06 13:28:52;;;;;;;15.38;7.70;;;6.50;99.90;;;;;;5047530;28;20061;-55
2022/12/06 13:31:23;;;;;;;13.65;7.97;;;6.40;99.90;;;;;;5047930;28;20017;-55